sensor_id;sensor_type;location;lat;lon;timestamp;P1;durP1;ratioP1;P2;durP2;ratioP2
6549;SDS011;15142;48.888;9.134;2023-07-22T00:00:15;3.63;;;3.00;;
6549;SDS011;15142;48.888;9.134;2023-07-22T00:02:48;4.50;;;3.07;;
6549;SDS011;15142;48.888;9.134;2023-07-22T00:05:17;2.80;;;2.27;;
6549;SDS011;15142;48.888;9.134;2023-07-22T00:07:48;3.30;;;2.53;;
6549;SDS011;15142;48.888;9.134;2023-07-22T00:10:17;2.43;;;2.23;;
6549;SDS011;15142;48.888;9.134;2023-07-22T00:12:46;2.73;;;2.10;;
6549;SDS011;15142;48.888;9.134;2023-07-22T00:15:15;3.20;;;2.10;;
6549;SDS011;15142;48.888;9.134;2023-07-22T00:17:48;4.40;;;2.67;;
6549;SDS011;15142;48.888;9.134;2023-07-22T00:20:17;3.10;;;2.30;;
6549;SDS011;15142;48.888;9.134;2023-07-22T00:22:47;3.90;;;2.47;;
6549;SDS011;15142;48.888;9.134;2023-07-22T00:25:16;4.27;;;3.10;;
6549;SDS011;15142;48.888;9.134;2023-07-22T00:27:44;5.40;;;3.17;;
6549;SDS011;15142;48.888;9.134;2023-07-22T00:30:13;3.57;;;2.70;;
6549;SDS011;15142;48.888;9.134;2023-07-22T00:32:42;6.50;;;2.93;;
6549;SDS011;15142;48.888;9.134;2023-07-22T00:35:13;3.83;;;3.30;;
6549;SDS011;15142;48.888;9.134;2023-07-22T00:37:42;5.67;;;2.60;;
6549;SDS011;15142;48.888;9.134;2023-07-22T00:40:11;2.70;;;2.50;;
6549;SDS011;15142;48.888;9.134;2023-07-22T00:42:41;2.83;;;2.50;;
6549;SDS011;15142;48.888;9.134;2023-07-22T00:45:10;2.70;;;2.50;;
6549;SDS011;15142;48.888;9.134;2023-07-22T00:47:39;3.00;;;2.30;;
6549;SDS011;15142;48.888;9.134;2023-07-22T00:50:08;9.00;;;3.00;;
6549;SDS011;15142;48.888;9.134;2023-07-22T00:52:39;5.67;;;2.47;;
6549;SDS011;15142;48.888;9.134;2023-07-22T00:55:08;2.67;;;2.57;;
6549;SDS011;15142;48.888;9.134;2023-07-22T00:57:37;3.60;;;2.40;;
6549;SDS011;15142;48.888;9.134;2023-07-22T01:00:07;3.30;;;2.93;;
6549;SDS011;15142;48.888;9.134;2023-07-22T01:02:37;4.53;;;2.60;;
6549;SDS011;15142;48.888;9.134;2023-07-22T01:05:05;2.47;;;2.27;;
6549;SDS011;15142;48.888;9.134;2023-07-22T01:07:36;4.57;;;2.60;;
6549;SDS011;15142;48.888;9.134;2023-07-22T01:10:08;4.07;;;3.00;;
6549;SDS011;15142;48.888;9.134;2023-07-22T01:12:38;7.20;;;3.10;;
6549;SDS011;15142;48.888;9.134;2023-07-22T01:15:07;3.10;;;2.27;;
6549;SDS011;15142;48.888;9.134;2023-07-22T01:17:37;10.03;;;2.60;;
6549;SDS011;15142;48.888;9.134;2023-07-22T01:20:06;3.07;;;2.87;;
6549;SDS011;15142;48.888;9.134;2023-07-22T01:22:36;3.33;;;2.47;;
6549;SDS011;15142;48.888;9.134;2023-07-22T01:25:09;2.87;;;2.40;;
6549;SDS011;15142;48.888;9.134;2023-07-22T01:27:38;2.77;;;2.57;;
6549;SDS011;15142;48.888;9.134;2023-07-22T01:30:07;7.43;;;3.13;;
6549;SDS011;15142;48.888;9.134;2023-07-22T01:32:36;2.87;;;2.67;;
6549;SDS011;15142;48.888;9.134;2023-07-22T01:35:05;3.50;;;2.40;;
6549;SDS011;15142;48.888;9.134;2023-07-22T01:37:35;5.37;;;2.70;;
6549;SDS011;15142;48.888;9.134;2023-07-22T01:40:04;6.33;;;2.50;;
6549;SDS011;15142;48.888;9.134;2023-07-22T01:42:40;2.70;;;2.50;;
6549;SDS011;15142;48.888;9.134;2023-07-22T01:45:09;3.67;;;3.07;;
6549;SDS011;15142;48.888;9.134;2023-07-22T01:47:38;4.90;;;2.60;;
6549;SDS011;15142;48.888;9.134;2023-07-22T01:50:08;5.60;;;2.90;;
6549;SDS011;15142;48.888;9.134;2023-07-22T01:52:38;3.40;;;2.70;;
6549;SDS011;15142;48.888;9.134;2023-07-22T01:55:07;7.30;;;3.23;;
6549;SDS011;15142;48.888;9.134;2023-07-22T01:57:36;4.40;;;3.33;;
6549;SDS011;15142;48.888;9.134;2023-07-22T02:00:08;7.73;;;2.47;;
6549;SDS011;15142;48.888;9.134;2023-07-22T02:02:41;6.20;;;3.33;;
6549;SDS011;15142;48.888;9.134;2023-07-22T02:05:09;3.47;;;2.50;;
6549;SDS011;15142;48.888;9.134;2023-07-22T02:07:38;2.70;;;2.43;;
6549;SDS011;15142;48.888;9.134;2023-07-22T02:10:07;4.97;;;2.90;;
6549;SDS011;15142;48.888;9.134;2023-07-22T02:12:37;3.77;;;3.03;;
6549;SDS011;15142;48.888;9.134;2023-07-22T02:15:09;3.23;;;2.67;;
6549;SDS011;15142;48.888;9.134;2023-07-22T02:17:38;4.70;;;2.97;;
6549;SDS011;15142;48.888;9.134;2023-07-22T02:20:07;4.37;;;2.43;;
6549;SDS011;15142;48.888;9.134;2023-07-22T02:22:37;4.40;;;2.57;;
6549;SDS011;15142;48.888;9.134;2023-07-22T02:25:07;3.50;;;2.80;;
6549;SDS011;15142;48.888;9.134;2023-07-22T02:27:36;8.77;;;3.00;;
6549;SDS011;15142;48.888;9.134;2023-07-22T02:30:06;4.70;;;2.53;;
6549;SDS011;15142;48.888;9.134;2023-07-22T02:32:38;2.70;;;2.23;;
6549;SDS011;15142;48.888;9.134;2023-07-22T02:35:09;3.10;;;2.90;;
6549;SDS011;15142;48.888;9.134;2023-07-22T02:37:38;4.57;;;2.53;;
6549;SDS011;15142;48.888;9.134;2023-07-22T02:40:07;3.50;;;2.97;;
6549;SDS011;15142;48.888;9.134;2023-07-22T02:42:38;4.50;;;3.20;;
6549;SDS011;15142;48.888;9.134;2023-07-22T02:45:10;4.27;;;3.07;;
6549;SDS011;15142;48.888;9.134;2023-07-22T02:47:39;4.47;;;3.10;;
6549;SDS011;15142;48.888;9.134;2023-07-22T02:50:08;6.03;;;3.73;;
6549;SDS011;15142;48.888;9.134;2023-07-22T02:52:37;3.97;;;3.00;;
6549;SDS011;15142;48.888;9.134;2023-07-22T02:55:07;3.97;;;3.67;;
6549;SDS011;15142;48.888;9.134;2023-07-22T02:57:37;7.60;;;3.70;;
6549;SDS011;15142;48.888;9.134;2023-07-22T03:00:09;3.90;;;3.50;;
6549;SDS011;15142;48.888;9.134;2023-07-22T03:02:43;4.10;;;3.47;;
6549;SDS011;15142;48.888;9.134;2023-07-22T03:05:11;4.70;;;3.57;;
6549;SDS011;15142;48.888;9.134;2023-07-22T03:07:40;5.53;;;3.83;;
6549;SDS011;15142;48.888;9.134;2023-07-22T03:10:09;6.70;;;3.40;;
6549;SDS011;15142;48.888;9.134;2023-07-22T03:12:38;5.67;;;4.13;;
6549;SDS011;15142;48.888;9.134;2023-07-22T03:15:07;8.67;;;3.23;;
6549;SDS011;15142;48.888;9.134;2023-07-22T03:17:39;4.27;;;3.73;;
6549;SDS011;15142;48.888;9.134;2023-07-22T03:20:09;3.93;;;3.63;;
6549;SDS011;15142;48.888;9.134;2023-07-22T03:22:40;4.57;;;4.17;;
6549;SDS011;15142;48.888;9.134;2023-07-22T03:25:09;6.87;;;3.80;;
6549;SDS011;15142;48.888;9.134;2023-07-22T03:27:37;4.47;;;3.80;;
6549;SDS011;15142;48.888;9.134;2023-07-22T03:30:07;4.40;;;4.00;;
6549;SDS011;15142;48.888;9.134;2023-07-22T03:32:40;7.70;;;4.60;;
6549;SDS011;15142;48.888;9.134;2023-07-22T03:35:09;7.53;;;3.50;;
6549;SDS011;15142;48.888;9.134;2023-07-22T03:37:38;11.93;;;3.70;;
6549;SDS011;15142;48.888;9.134;2023-07-22T03:40:08;5.10;;;4.13;;
6549;SDS011;15142;48.888;9.134;2023-07-22T03:42:45;8.27;;;4.03;;
6549;SDS011;15142;48.888;9.134;2023-07-22T03:45:16;6.53;;;4.57;;
6549;SDS011;15142;48.888;9.134;2023-07-22T03:47:45;4.23;;;3.83;;
6549;SDS011;15142;48.888;9.134;2023-07-22T03:50:15;6.67;;;3.60;;
6549;SDS011;15142;48.888;9.134;2023-07-22T03:52:44;7.10;;;4.23;;
6549;SDS011;15142;48.888;9.134;2023-07-22T03:55:13;5.17;;;3.47;;
6549;SDS011;15142;48.888;9.134;2023-07-22T03:57:42;6.33;;;3.60;;
6549;SDS011;15142;48.888;9.134;2023-07-22T04:00:10;3.93;;;3.50;;
6549;SDS011;15142;48.888;9.134;2023-07-22T04:02:42;6.40;;;4.40;;
6549;SDS011;15142;48.888;9.134;2023-07-22T04:05:11;8.40;;;3.70;;
6549;SDS011;15142;48.888;9.134;2023-07-22T04:07:40;5.70;;;3.90;;
6549;SDS011;15142;48.888;9.134;2023-07-22T04:10:08;8.10;;;4.57;;
6549;SDS011;15142;48.888;9.134;2023-07-22T04:12:37;6.90;;;4.90;;
6549;SDS011;15142;48.888;9.134;2023-07-22T04:15:06;5.80;;;4.20;;
6549;SDS011;15142;48.888;9.134;2023-07-22T04:17:36;8.73;;;3.17;;
6549;SDS011;15142;48.888;9.134;2023-07-22T04:20:08;6.57;;;3.40;;
6549;SDS011;15142;48.888;9.134;2023-07-22T04:22:37;5.87;;;3.43;;
6549;SDS011;15142;48.888;9.134;2023-07-22T04:25:06;4.47;;;3.67;;
6549;SDS011;15142;48.888;9.134;2023-07-22T04:27:35;4.73;;;3.23;;
6549;SDS011;15142;48.888;9.134;2023-07-22T04:30:05;5.20;;;4.03;;
6549;SDS011;15142;48.888;9.134;2023-07-22T04:32:34;4.07;;;3.33;;
6549;SDS011;15142;48.888;9.134;2023-07-22T04:35:04;8.00;;;3.60;;
6549;SDS011;15142;48.888;9.134;2023-07-22T04:37:37;4.23;;;3.80;;
6549;SDS011;15142;48.888;9.134;2023-07-22T04:40:06;6.50;;;3.80;;
6549;SDS011;15142;48.888;9.134;2023-07-22T04:42:40;7.37;;;3.57;;
6549;SDS011;15142;48.888;9.134;2023-07-22T04:45:09;3.80;;;3.50;;
6549;SDS011;15142;48.888;9.134;2023-07-22T04:47:39;6.10;;;3.27;;
6549;SDS011;15142;48.888;9.134;2023-07-22T04:50:13;5.13;;;4.13;;
6549;SDS011;15142;48.888;9.134;2023-07-22T04:52:43;4.50;;;4.10;;
6549;SDS011;15142;48.888;9.134;2023-07-22T04:55:13;8.07;;;4.03;;
6549;SDS011;15142;48.888;9.134;2023-07-22T04:57:42;4.47;;;3.70;;
6549;SDS011;15142;48.888;9.134;2023-07-22T05:00:11;3.50;;;3.13;;
6549;SDS011;15142;48.888;9.134;2023-07-22T05:02:41;5.07;;;3.90;;
6549;SDS011;15142;48.888;9.134;2023-07-22T05:05:13;3.53;;;3.23;;
6549;SDS011;15142;48.888;9.134;2023-07-22T05:07:43;3.13;;;2.83;;
6549;SDS011;15142;48.888;9.134;2023-07-22T05:10:13;6.20;;;3.03;;
6549;SDS011;15142;48.888;9.134;2023-07-22T05:12:42;3.13;;;2.83;;
6549;SDS011;15142;48.888;9.134;2023-07-22T05:15:11;3.43;;;3.13;;
6549;SDS011;15142;48.888;9.134;2023-07-22T05:17:40;4.87;;;3.60;;
6549;SDS011;15142;48.888;9.134;2023-07-22T05:20:10;11.17;;;4.73;;
6549;SDS011;15142;48.888;9.134;2023-07-22T05:22:42;5.13;;;3.27;;
6549;SDS011;15142;48.888;9.134;2023-07-22T05:25:11;5.70;;;3.83;;
6549;SDS011;15142;48.888;9.134;2023-07-22T05:27:39;5.03;;;4.30;;
6549;SDS011;15142;48.888;9.134;2023-07-22T05:30:08;6.40;;;3.97;;
6549;SDS011;15142;48.888;9.134;2023-07-22T05:32:38;5.73;;;4.40;;
6549;SDS011;15142;48.888;9.134;2023-07-22T05:35:06;4.67;;;3.57;;
6549;SDS011;15142;48.888;9.134;2023-07-22T05:37:36;6.13;;;3.97;;
6549;SDS011;15142;48.888;9.134;2023-07-22T05:40:08;3.03;;;2.83;;
6549;SDS011;15142;48.888;9.134;2023-07-22T05:42:37;3.40;;;3.10;;
6549;SDS011;15142;48.888;9.134;2023-07-22T05:45:07;9.50;;;3.77;;
6549;SDS011;15142;48.888;9.134;2023-07-22T05:47:39;6.13;;;3.43;;
6549;SDS011;15142;48.888;9.134;2023-07-22T05:50:07;4.70;;;3.87;;
6549;SDS011;15142;48.888;9.134;2023-07-22T05:52:36;6.20;;;2.97;;
6549;SDS011;15142;48.888;9.134;2023-07-22T05:55:07;9.53;;;2.93;;
6549;SDS011;15142;48.888;9.134;2023-07-22T05:57:37;4.13;;;2.93;;
6549;SDS011;15142;48.888;9.134;2023-07-22T06:00:06;3.70;;;3.07;;
6549;SDS011;15142;48.888;9.134;2023-07-22T06:02:38;4.27;;;3.17;;
6549;SDS011;15142;48.888;9.134;2023-07-22T06:05:07;4.77;;;3.17;;
6549;SDS011;15142;48.888;9.134;2023-07-22T06:07:36;4.57;;;3.03;;
6549;SDS011;15142;48.888;9.134;2023-07-22T06:10:08;3.60;;;3.30;;
6549;SDS011;15142;48.888;9.134;2023-07-22T06:12:37;3.33;;;2.50;;
6549;SDS011;15142;48.888;9.134;2023-07-22T06:15:07;5.23;;;2.80;;
6549;SDS011;15142;48.888;9.134;2023-07-22T06:17:35;13.93;;;2.73;;
6549;SDS011;15142;48.888;9.134;2023-07-22T06:20:05;4.03;;;2.57;;
6549;SDS011;15142;48.888;9.134;2023-07-22T06:22:35;3.47;;;3.13;;
6549;SDS011;15142;48.888;9.134;2023-07-22T06:25:03;3.40;;;2.40;;
6549;SDS011;15142;48.888;9.134;2023-07-22T06:27:35;2.67;;;2.47;;
6549;SDS011;15142;48.888;9.134;2023-07-22T06:30:05;3.40;;;3.10;;
6549;SDS011;15142;48.888;9.134;2023-07-22T06:32:36;4.10;;;3.30;;
6549;SDS011;15142;48.888;9.134;2023-07-22T06:35:07;4.57;;;2.50;;
6549;SDS011;15142;48.888;9.134;2023-07-22T06:37:36;5.40;;;2.63;;
6549;SDS011;15142;48.888;9.134;2023-07-22T06:40:06;6.10;;;3.10;;
6549;SDS011;15142;48.888;9.134;2023-07-22T06:42:38;3.90;;;2.57;;
6549;SDS011;15142;48.888;9.134;2023-07-22T06:45:07;2.30;;;2.10;;
6549;SDS011;15142;48.888;9.134;2023-07-22T06:47:36;2.83;;;2.70;;
6549;SDS011;15142;48.888;9.134;2023-07-22T06:50:05;7.40;;;2.70;;
6549;SDS011;15142;48.888;9.134;2023-07-22T06:52:34;2.47;;;1.80;;
6549;SDS011;15142;48.888;9.134;2023-07-22T06:55:03;2.67;;;2.47;;
6549;SDS011;15142;48.888;9.134;2023-07-22T06:57:33;2.47;;;2.23;;
6549;SDS011;15142;48.888;9.134;2023-07-22T07:00:04;9.00;;;2.60;;
6549;SDS011;15142;48.888;9.134;2023-07-22T07:02:35;2.23;;;1.47;;
6549;SDS011;15142;48.888;9.134;2023-07-22T07:05:04;2.30;;;2.10;;
6549;SDS011;15142;48.888;9.134;2023-07-22T07:07:33;2.33;;;2.23;;
6549;SDS011;15142;48.888;9.134;2023-07-22T07:10:02;2.87;;;2.50;;
6549;SDS011;15142;48.888;9.134;2023-07-22T07:12:31;7.47;;;1.60;;
6549;SDS011;15142;48.888;9.134;2023-07-22T07:15:00;3.10;;;2.33;;
6549;SDS011;15142;48.888;9.134;2023-07-22T07:17:31;11.50;;;3.67;;
6549;SDS011;15142;48.888;9.134;2023-07-22T07:20:00;3.43;;;2.07;;
6549;SDS011;15142;48.888;9.134;2023-07-22T07:22:28;1.97;;;1.87;;
6549;SDS011;15142;48.888;9.134;2023-07-22T07:24:56;2.20;;;1.90;;
6549;SDS011;15142;48.888;9.134;2023-07-22T07:27:26;2.80;;;1.90;;
6549;SDS011;15142;48.888;9.134;2023-07-22T07:29:55;2.43;;;2.23;;
6549;SDS011;15142;48.888;9.134;2023-07-22T07:32:24;5.43;;;2.10;;
6549;SDS011;15142;48.888;9.134;2023-07-22T07:34:55;1.70;;;1.60;;
6549;SDS011;15142;48.888;9.134;2023-07-22T07:37:23;5.80;;;2.93;;
6549;SDS011;15142;48.888;9.134;2023-07-22T07:39:52;2.40;;;1.73;;
6549;SDS011;15142;48.888;9.134;2023-07-22T07:42:24;2.03;;;1.73;;
6549;SDS011;15142;48.888;9.134;2023-07-22T07:44:53;2.73;;;1.90;;
6549;SDS011;15142;48.888;9.134;2023-07-22T07:47:21;3.07;;;2.20;;
6549;SDS011;15142;48.888;9.134;2023-07-22T07:49:50;3.70;;;2.03;;
6549;SDS011;15142;48.888;9.134;2023-07-22T07:52:21;3.23;;;2.03;;
6549;SDS011;15142;48.888;9.134;2023-07-22T07:54:50;2.23;;;1.97;;
6549;SDS011;15142;48.888;9.134;2023-07-22T07:57:19;4.00;;;2.10;;
6549;SDS011;15142;48.888;9.134;2023-07-22T07:59:47;3.30;;;2.10;;
6549;SDS011;15142;48.888;9.134;2023-07-22T08:02:16;7.70;;;2.57;;
6549;SDS011;15142;48.888;9.134;2023-07-22T08:04:45;2.77;;;2.57;;
6549;SDS011;15142;48.888;9.134;2023-07-22T08:07:15;3.20;;;2.90;;
6549;SDS011;15142;48.888;9.134;2023-07-22T08:09:48;4.43;;;2.80;;
6549;SDS011;15142;48.888;9.134;2023-07-22T08:12:18;3.63;;;1.80;;
6549;SDS011;15142;48.888;9.134;2023-07-22T08:14:47;6.67;;;3.03;;
6549;SDS011;15142;48.888;9.134;2023-07-22T08:17:15;3.57;;;2.40;;
6549;SDS011;15142;48.888;9.134;2023-07-22T08:19:44;3.03;;;2.03;;
6549;SDS011;15142;48.888;9.134;2023-07-22T08:22:12;2.40;;;2.07;;
6549;SDS011;15142;48.888;9.134;2023-07-22T08:24:41;5.80;;;2.00;;
6549;SDS011;15142;48.888;9.134;2023-07-22T08:27:12;5.67;;;3.50;;
6549;SDS011;15142;48.888;9.134;2023-07-22T08:29:40;2.27;;;2.07;;
6549;SDS011;15142;48.888;9.134;2023-07-22T08:32:09;2.30;;;2.10;;
6549;SDS011;15142;48.888;9.134;2023-07-22T08:34:37;2.60;;;2.23;;
6549;SDS011;15142;48.888;9.134;2023-07-22T08:37:06;8.90;;;3.40;;
6549;SDS011;15142;48.888;9.134;2023-07-22T08:39:35;3.27;;;1.93;;
6549;SDS011;15142;48.888;9.134;2023-07-22T08:42:04;2.20;;;2.00;;
6549;SDS011;15142;48.888;9.134;2023-07-22T08:44:36;3.03;;;2.07;;
6549;SDS011;15142;48.888;9.134;2023-07-22T08:47:06;4.33;;;2.07;;
6549;SDS011;15142;48.888;9.134;2023-07-22T08:49:44;4.40;;;2.30;;
6549;SDS011;15142;48.888;9.134;2023-07-22T08:52:15;2.07;;;1.60;;
6549;SDS011;15142;48.888;9.134;2023-07-22T08:54:45;1.60;;;1.50;;
6549;SDS011;15142;48.888;9.134;2023-07-22T08:57:14;2.80;;;2.20;;
6549;SDS011;15142;48.888;9.134;2023-07-22T08:59:47;2.00;;;1.87;;
6549;SDS011;15142;48.888;9.134;2023-07-22T09:02:16;3.27;;;2.10;;
6549;SDS011;15142;48.888;9.134;2023-07-22T09:04:44;1.77;;;1.33;;
6549;SDS011;15142;48.888;9.134;2023-07-22T09:07:13;2.20;;;1.70;;
6549;SDS011;15142;48.888;9.134;2023-07-22T09:09:45;4.83;;;2.07;;
6549;SDS011;15142;48.888;9.134;2023-07-22T09:12:14;3.27;;;2.07;;
6549;SDS011;15142;48.888;9.134;2023-07-22T09:14:43;3.03;;;1.57;;
6549;SDS011;15142;48.888;9.134;2023-07-22T09:17:15;1.90;;;1.70;;
6549;SDS011;15142;48.888;9.134;2023-07-22T09:19:43;1.80;;;1.70;;
6549;SDS011;15142;48.888;9.134;2023-07-22T09:22:12;2.10;;;1.87;;
6549;SDS011;15142;48.888;9.134;2023-07-22T09:24:41;2.77;;;1.20;;
6549;SDS011;15142;48.888;9.134;2023-07-22T09:27:10;1.53;;;1.43;;
6549;SDS011;15142;48.888;9.134;2023-07-22T09:29:38;1.77;;;1.67;;
6549;SDS011;15142;48.888;9.134;2023-07-22T09:32:10;1.70;;;1.57;;
6549;SDS011;15142;48.888;9.134;2023-07-22T09:34:42;2.50;;;1.30;;
6549;SDS011;15142;48.888;9.134;2023-07-22T09:37:23;6.47;;;1.87;;
6549;SDS011;15142;48.888;9.134;2023-07-22T09:40:11;2.03;;;1.80;;
6549;SDS011;15142;48.888;9.134;2023-07-22T09:42:42;5.93;;;2.47;;
6549;SDS011;15142;48.888;9.134;2023-07-22T09:45:13;3.13;;;2.00;;
6549;SDS011;15142;48.888;9.134;2023-07-22T09:47:41;2.80;;;2.50;;
6549;SDS011;15142;48.888;9.134;2023-07-22T09:50:14;1.97;;;1.80;;
6549;SDS011;15142;48.888;9.134;2023-07-22T09:52:44;1.30;;;1.20;;
6549;SDS011;15142;48.888;9.134;2023-07-22T09:55:15;5.00;;;1.83;;
6549;SDS011;15142;48.888;9.134;2023-07-22T09:57:46;4.50;;;1.80;;
6549;SDS011;15142;48.888;9.134;2023-07-22T10:00:17;3.20;;;1.80;;
6549;SDS011;15142;48.888;9.134;2023-07-22T10:02:47;1.53;;;1.43;;
6549;SDS011;15142;48.888;9.134;2023-07-22T10:05:20;1.40;;;1.30;;
6549;SDS011;15142;48.888;9.134;2023-07-22T10:07:49;2.83;;;1.57;;
6549;SDS011;15142;48.888;9.134;2023-07-22T10:10:20;2.90;;;1.50;;
6549;SDS011;15142;48.888;9.134;2023-07-22T10:12:50;2.07;;;1.60;;
6549;SDS011;15142;48.888;9.134;2023-07-22T10:15:20;3.20;;;1.30;;
6549;SDS011;15142;48.888;9.134;2023-07-22T10:17:49;3.27;;;1.40;;
6549;SDS011;15142;48.888;9.134;2023-07-22T10:20:22;1.50;;;1.20;;
6549;SDS011;15142;48.888;9.134;2023-07-22T10:22:51;1.00;;;1.00;;
6549;SDS011;15142;48.888;9.134;2023-07-22T10:25:20;4.97;;;1.33;;
6549;SDS011;15142;48.888;9.134;2023-07-22T10:27:51;1.67;;;1.53;;
6549;SDS011;15142;48.888;9.134;2023-07-22T10:30:20;1.20;;;1.10;;
6549;SDS011;15142;48.888;9.134;2023-07-22T10:32:49;5.73;;;1.43;;
6549;SDS011;15142;48.888;9.134;2023-07-22T10:35:34;1.93;;;1.40;;
6549;SDS011;15142;48.888;9.134;2023-07-22T10:38:08;1.87;;;1.70;;
6549;SDS011;15142;48.888;9.134;2023-07-22T10:40:45;1.10;;;1.07;;
6549;SDS011;15142;48.888;9.134;2023-07-22T10:43:15;1.60;;;1.50;;
6549;SDS011;15142;48.888;9.134;2023-07-22T10:45:49;2.93;;;1.10;;
6549;SDS011;15142;48.888;9.134;2023-07-22T10:48:19;2.27;;;1.77;;
6549;SDS011;15142;48.888;9.134;2023-07-22T10:50:52;0.90;;;0.90;;
6549;SDS011;15142;48.888;9.134;2023-07-22T10:53:28;1.80;;;1.63;;
6549;SDS011;15142;48.888;9.134;2023-07-22T10:56:04;1.40;;;1.30;;
6549;SDS011;15142;48.888;9.134;2023-07-22T10:58:54;4.33;;;1.40;;
6549;SDS011;15142;48.888;9.134;2023-07-22T11:01:30;1.70;;;1.33;;
6549;SDS011;15142;48.888;9.134;2023-07-22T11:04:07;2.40;;;1.20;;
6549;SDS011;15142;48.888;9.134;2023-07-22T11:06:52;1.40;;;1.30;;
6549;SDS011;15142;48.888;9.134;2023-07-22T11:09:38;1.70;;;1.60;;
6549;SDS011;15142;48.888;9.134;2023-07-22T11:12:08;1.73;;;1.60;;
6549;SDS011;15142;48.888;9.134;2023-07-22T11:14:39;1.60;;;1.50;;
6549;SDS011;15142;48.888;9.134;2023-07-22T11:17:13;4.57;;;1.60;;
6549;SDS011;15142;48.888;9.134;2023-07-22T11:19:43;1.90;;;1.70;;
6549;SDS011;15142;48.888;9.134;2023-07-22T11:25:19;2.20;;;1.20;;
6549;SDS011;15142;48.888;9.134;2023-07-22T11:27:47;1.70;;;1.60;;
6549;SDS011;15142;48.888;9.134;2023-07-22T11:30:17;2.57;;;1.20;;
6549;SDS011;15142;48.888;9.134;2023-07-22T11:32:46;2.43;;;1.70;;
6549;SDS011;15142;48.888;9.134;2023-07-22T11:35:15;1.70;;;1.60;;
6549;SDS011;15142;48.888;9.134;2023-07-22T11:37:44;1.17;;;1.17;;
6549;SDS011;15142;48.888;9.134;2023-07-22T11:40:13;1.20;;;1.20;;
6549;SDS011;15142;48.888;9.134;2023-07-22T11:42:44;1.57;;;1.23;;
6549;SDS011;15142;48.888;9.134;2023-07-22T11:45:16;1.50;;;1.40;;
6549;SDS011;15142;48.888;9.134;2023-07-22T11:47:45;1.40;;;1.30;;
6549;SDS011;15142;48.888;9.134;2023-07-22T11:50:13;1.67;;;1.57;;
6549;SDS011;15142;48.888;9.134;2023-07-22T11:52:42;1.27;;;1.17;;
6549;SDS011;15142;48.888;9.134;2023-07-22T11:55:18;4.37;;;2.37;;
6549;SDS011;15142;48.888;9.134;2023-07-22T11:57:54;2.60;;;2.40;;
6549;SDS011;15142;48.888;9.134;2023-07-22T12:00:23;2.17;;;2.07;;
6549;SDS011;15142;48.888;9.134;2023-07-22T12:02:52;4.53;;;1.83;;
6549;SDS011;15142;48.888;9.134;2023-07-22T12:05:22;1.40;;;1.30;;
6549;SDS011;15142;48.888;9.134;2023-07-22T12:07:51;2.00;;;1.90;;
6549;SDS011;15142;48.888;9.134;2023-07-22T12:10:19;2.80;;;1.67;;
6549;SDS011;15142;48.888;9.134;2023-07-22T12:12:55;2.50;;;1.50;;
6549;SDS011;15142;48.888;9.134;2023-07-22T12:15:29;2.10;;;1.60;;
6549;SDS011;15142;48.888;9.134;2023-07-22T12:17:59;1.70;;;1.30;;
6549;SDS011;15142;48.888;9.134;2023-07-22T12:20:30;1.73;;;1.63;;
6549;SDS011;15142;48.888;9.134;2023-07-22T12:23:00;2.40;;;2.20;;
6549;SDS011;15142;48.888;9.134;2023-07-22T12:25:29;1.50;;;1.40;;
6549;SDS011;15142;48.888;9.134;2023-07-22T12:28:00;2.00;;;1.87;;
6549;SDS011;15142;48.888;9.134;2023-07-22T12:30:29;2.53;;;1.87;;
6549;SDS011;15142;48.888;9.134;2023-07-22T12:32:57;1.77;;;1.67;;
6549;SDS011;15142;48.888;9.134;2023-07-22T12:35:26;1.37;;;1.23;;
6549;SDS011;15142;48.888;9.134;2023-07-22T12:37:54;1.40;;;1.30;;
6549;SDS011;15142;48.888;9.134;2023-07-22T12:40:23;2.93;;;1.60;;
6549;SDS011;15142;48.888;9.134;2023-07-22T12:42:51;1.10;;;1.10;;
6549;SDS011;15142;48.888;9.134;2023-07-22T12:45:23;61.07;;;8.00;;
6549;SDS011;15142;48.888;9.134;2023-07-22T12:47:52;1.60;;;1.50;;
6549;SDS011;15142;48.888;9.134;2023-07-22T12:50:20;1.43;;;1.10;;
6549;SDS011;15142;48.888;9.134;2023-07-22T12:52:49;2.37;;;1.03;;
6549;SDS011;15142;48.888;9.134;2023-07-22T12:55:17;2.30;;;2.03;;
6549;SDS011;15142;48.888;9.134;2023-07-22T12:57:46;2.23;;;2.03;;
6549;SDS011;15142;48.888;9.134;2023-07-22T13:00:14;1.43;;;1.33;;
6549;SDS011;15142;48.888;9.134;2023-07-22T13:02:46;2.60;;;2.37;;
6549;SDS011;15142;48.888;9.134;2023-07-22T13:05:14;1.80;;;1.70;;
6549;SDS011;15142;48.888;9.134;2023-07-22T13:07:43;2.40;;;2.20;;
6549;SDS011;15142;48.888;9.134;2023-07-22T13:10:11;1.97;;;1.63;;
6549;SDS011;15142;48.888;9.134;2023-07-22T13:12:43;3.50;;;1.50;;
6549;SDS011;15142;48.888;9.134;2023-07-22T13:15:12;1.57;;;1.47;;
6549;SDS011;15142;48.888;9.134;2023-07-22T13:17:40;5.50;;;2.27;;
6549;SDS011;15142;48.888;9.134;2023-07-22T13:20:12;1.53;;;1.33;;
6549;SDS011;15142;48.888;9.134;2023-07-22T13:22:40;2.53;;;1.90;;
6549;SDS011;15142;48.888;9.134;2023-07-22T13:25:09;2.50;;;1.67;;
6549;SDS011;15142;48.888;9.134;2023-07-22T13:27:37;2.03;;;1.90;;
6549;SDS011;15142;48.888;9.134;2023-07-22T13:30:08;1.70;;;1.57;;
6549;SDS011;15142;48.888;9.134;2023-07-22T13:32:37;4.60;;;2.07;;
6549;SDS011;15142;48.888;9.134;2023-07-22T13:35:06;3.00;;;1.73;;
6549;SDS011;15142;48.888;9.134;2023-07-22T13:37:38;1.90;;;1.67;;
6549;SDS011;15142;48.888;9.134;2023-07-22T13:40:07;2.33;;;1.83;;
6549;SDS011;15142;48.888;9.134;2023-07-22T13:42:38;2.20;;;1.97;;
6549;SDS011;15142;48.888;9.134;2023-07-22T13:45:06;3.60;;;2.70;;
6549;SDS011;15142;48.888;9.134;2023-07-22T13:47:36;6.20;;;1.70;;
6549;SDS011;15142;48.888;9.134;2023-07-22T13:50:05;1.53;;;1.47;;
6549;SDS011;15142;48.888;9.134;2023-07-22T13:52:33;2.47;;;1.83;;
6549;SDS011;15142;48.888;9.134;2023-07-22T13:55:05;4.33;;;1.67;;
6549;SDS011;15142;48.888;9.134;2023-07-22T13:57:34;2.43;;;2.23;;
6549;SDS011;15142;48.888;9.134;2023-07-22T14:00:03;1.87;;;1.77;;
6549;SDS011;15142;48.888;9.134;2023-07-22T14:02:38;1.63;;;1.53;;
6549;SDS011;15142;48.888;9.134;2023-07-22T14:05:07;2.10;;;2.00;;
6549;SDS011;15142;48.888;9.134;2023-07-22T14:07:36;1.97;;;1.77;;
6549;SDS011;15142;48.888;9.134;2023-07-22T14:10:09;1.80;;;1.70;;
6549;SDS011;15142;48.888;9.134;2023-07-22T14:12:39;3.93;;;1.53;;
6549;SDS011;15142;48.888;9.134;2023-07-22T14:15:08;2.23;;;1.63;;
6549;SDS011;15142;48.888;9.134;2023-07-22T14:17:36;2.07;;;1.87;;
6549;SDS011;15142;48.888;9.134;2023-07-22T14:20:06;1.90;;;1.80;;
6549;SDS011;15142;48.888;9.134;2023-07-22T14:22:37;4.40;;;1.97;;
6549;SDS011;15142;48.888;9.134;2023-07-22T14:25:05;4.27;;;2.20;;
6549;SDS011;15142;48.888;9.134;2023-07-22T14:27:37;1.80;;;1.70;;
6549;SDS011;15142;48.888;9.134;2023-07-22T14:30:07;3.07;;;2.20;;
6549;SDS011;15142;48.888;9.134;2023-07-22T14:32:36;2.00;;;1.50;;
6549;SDS011;15142;48.888;9.134;2023-07-22T14:35:05;1.60;;;1.50;;
6549;SDS011;15142;48.888;9.134;2023-07-22T14:37:35;2.23;;;1.80;;
6549;SDS011;15142;48.888;9.134;2023-07-22T14:40:04;3.60;;;2.33;;
6549;SDS011;15142;48.888;9.134;2023-07-22T14:42:37;3.70;;;2.23;;
6549;SDS011;15142;48.888;9.134;2023-07-22T14:45:07;3.53;;;2.00;;
6549;SDS011;15142;48.888;9.134;2023-07-22T14:47:36;6.57;;;2.57;;
6549;SDS011;15142;48.888;9.134;2023-07-22T14:50:05;1.97;;;1.80;;
6549;SDS011;15142;48.888;9.134;2023-07-22T14:52:34;3.80;;;3.03;;
6549;SDS011;15142;48.888;9.134;2023-07-22T14:55:02;4.93;;;2.23;;
6549;SDS011;15142;48.888;9.134;2023-07-22T14:57:34;3.53;;;2.17;;
6549;SDS011;15142;48.888;9.134;2023-07-22T15:00:04;6.20;;;2.20;;
6549;SDS011;15142;48.888;9.134;2023-07-22T15:02:35;3.10;;;2.43;;
6549;SDS011;15142;48.888;9.134;2023-07-22T15:05:04;2.40;;;2.20;;
6549;SDS011;15142;48.888;9.134;2023-07-22T15:07:33;2.57;;;2.37;;
6549;SDS011;15142;48.888;9.134;2023-07-22T15:10:02;2.50;;;2.30;;
6549;SDS011;15142;48.888;9.134;2023-07-22T15:12:35;2.60;;;2.13;;
6549;SDS011;15142;48.888;9.134;2023-07-22T15:15:04;2.43;;;2.23;;
6549;SDS011;15142;48.888;9.134;2023-07-22T15:17:34;2.70;;;2.03;;
6549;SDS011;15142;48.888;9.134;2023-07-22T15:20:02;2.27;;;2.10;;